Boa Vista, Brazil
Current Conditions -  °F | °C
As of 8:00 AM on Monday 22 Dec 2014 (Local Time) from SBBV Reporting Station
Few Clouds Few Clouds  
Wind Chill: 79°   Ceiling: Unl
Heat Index: 81°   Visibility: 6mi
Dew Point: 70°   Wind: 13mph
Humidity: 74%   Direction: 60°ENE
Pressure: 29.91"   Gusts: NA
Location:  2.83°N, 60.66°W
Report Text: SBBV 221200Z 06011KT 9999 FEW025 26/21 Q1013
Loading
Personal Weather Stations






























Interactive Weather Map New forecast layout! Learn more

10-Day Weather Forecast

Advertisements
Track Severe Weather on mobile